KESF/ESF METAR and TAF weather

Enter ICAO airport designator
Station Type Date Time Source
KESF METAR 2018/12/10 01:53 UTC NOAA

KESF 100153Z AUTO 29003KT 10SM FEW015 SCT025 BKN035 04/04 A3026 RMK AO2 SLP247 T00440039


Station Type Date Time Source
KESF Decoded METAR 2018/12/10 01:53 UTC NOAA

ALEXANDRIA ESLER RGNL AIRPORT , LA, United States (KESF) 31-24N 092-18W 28M
Dec 09, 2018 - 08:53 PM EST / 2018.12.10 0153 UTC
Wind: from the WNW (290 degrees) at 3 MPH (3 KT):0
Visibility: 10 mile(s):0
Sky conditions: mostly cloudy
Temperature: 39.9 F (4.4 C)
Dew Point: 39.0 F (3.9 C)
Relative Humidity: 96%
Pressure (altimeter): 30.26 in. Hg (1024 hPa)
ob: KESF 100153Z AUTO 29003KT 10SM FEW015 SCT025 BKN035 04/04 A3026 RMK AO2 SLP247 T00440039
cycle: 2

Station Type Date Time Source
KESF TAF UTC NOAA

Error!


Example: see airport list